Time,TemperatureF,DewpointF,PressureIn,WindDirection,WindDirectionDegrees,WindSpeedMPH,WindSpeedGustMPH,Humidity,HourlyPrecipIn,Conditions,Clouds,dailyrainin,SoftwareType,DateUTC
2013-05-07 00:08:00,58.3,51.4,30.00,NW,315,0.0,-999.0,78,0.00,,,0.00,open2300 v1.10,2013-05-07 05:08:00,
2013-05-07 00:13:00,58.3,51.4,30.01,NW,315,0.0,-999.0,78,0.00,,,0.00,open2300 v1.10,2013-05-07 05:13:00,
2013-05-07 00:23:00,58.1,51.6,30.01,NW,315,0.0,-999.0,79,0.00,,,0.00,open2300 v1.10,2013-05-07 05:23:00,
2013-05-07 00:28:00,57.9,51.4,30.01,NW,315,0.0,-999.0,79,0.00,,,0.00,open2300 v1.10,2013-05-07 05:28:00,
2013-05-07 00:33:00,57.7,51.3,30.01,NW,315,0.0,-999.0,79,0.00,,,0.00,open2300 v1.10,2013-05-07 05:33:00,
2013-05-07 00:39:00,57.9,51.4,30.01,WNW,292,0.0,-999.0,79,0.00,,,0.00,open2300 v1.10,2013-05-07 05:39:00,
2013-05-07 00:44:00,57.9,51.4,30.01,WNW,292,0.0,-999.0,79,0.00,,,0.00,open2300 v1.10,2013-05-07 05:44:00,
2013-05-07 00:49:00,58.3,51.8,30.00,WNW,292,0.0,-999.0,79,0.00,,,0.00,open2300 v1.10,2013-05-07 05:49:00,
2013-05-07 00:54:00,58.3,51.8,30.00,WNW,292,0.0,-999.0,79,0.00,,,0.00,open2300 v1.10,2013-05-07 05:54:00,
2013-05-07 00:59:00,58.3,51.8,30.00,WNW,292,0.0,-999.0,79,0.00,,,0.00,open2300 v1.10,2013-05-07 05:59:00,
2013-05-07 01:10:00,58.3,51.8,30.01,WNW,292,0.0,-999.0,79,0.00,,,0.00,open2300 v1.10,2013-05-07 06:10:00,
2013-05-07 01:18:00,57.9,51.4,30.00,WNW,292,0.0,-999.0,79,0.00,,,0.00,open2300 v1.10,2013-05-07 06:18:00,
2013-05-07 01:23:00,57.7,51.3,30.00,WNW,292,0.0,-999.0,79,0.00,,,0.00,open2300 v1.10,2013-05-07 06:23:00,
2013-05-07 01:28:00,57.4,50.9,29.99,WNW,292,0.0,-999.0,79,0.00,,,0.00,open2300 v1.10,2013-05-07 06:28:00,
2013-05-07 01:33:00,57.4,50.9,29.99,WNW,292,0.0,-999.0,79,0.00,,,0.00,open2300 v1.10,2013-05-07 06:33:00,
2013-05-07 01:39:00,57.0,50.5,29.99,WNW,292,0.0,-999.0,79,0.00,,,0.00,open2300 v1.10,2013-05-07 06:39:00,
2013-05-07 01:44:00,57.0,50.9,29.99,WNW,292,0.0,-999.0,80,0.00,,,0.00,open2300 v1.10,2013-05-07 06:44:00,
2013-05-07 01:49:00,57.0,50.9,29.99,WNW,292,0.0,-999.0,80,0.00,,,0.00,open2300 v1.10,2013-05-07 06:49:00,
2013-05-07 01:54:00,57.0,50.9,29.99,WNW,292,0.0,-999.0,80,0.00,,,0.00,open2300 v1.10,2013-05-07 06:54:00,
2013-05-07 01:59:00,56.8,50.7,29.99,WNW,292,0.0,-999.0,80,0.00,,,0.00,open2300 v1.10,2013-05-07 06:59:00,
2013-05-07 02:10:00,56.8,50.7,29.99,WNW,292,0.0,-999.0,80,0.00,,,0.00,open2300 v1.10,2013-05-07 07:10:00,
2013-05-07 02:18:00,56.8,50.7,29.99,WNW,292,0.0,-999.0,80,0.00,,,0.00,open2300 v1.10,2013-05-07 07:18:00,
2013-05-07 02:23:00,56.5,50.4,29.98,WNW,292,0.0,-999.0,80,0.00,,,0.00,open2300 v1.10,2013-05-07 07:23:00,
2013-05-07 02:28:00,56.5,50.4,29.98,WNW,292,0.0,-999.0,80,0.00,,,0.00,open2300 v1.10,2013-05-07 07:28:00,
2013-05-07 02:33:00,56.3,50.2,29.99,WNW,292,0.0,-999.0,80,0.00,,,0.00,open2300 v1.10,2013-05-07 07:33:00,
2013-05-07 02:39:00,56.1,50.0,29.98,WNW,292,0.0,-999.0,80,0.00,,,0.00,open2300 v1.10,2013-05-07 07:39:00,
2013-05-07 02:44:00,56.1,50.0,29.98,WNW,292,0.0,-999.0,80,0.00,,,0.00,open2300 v1.10,2013-05-07 07:44:00,
2013-05-07 02:49:00,55.9,50.1,29.98,WNW,292,0.0,-999.0,81,0.00,,,0.00,open2300 v1.10,2013-05-07 07:49:00,
2013-05-07 02:54:00,55.8,50.0,29.98,WNW,292,0.0,-999.0,81,0.00,,,0.00,open2300 v1.10,2013-05-07 07:54:00,
2013-05-07 02:59:00,55.8,50.0,29.98,WNW,292,0.0,-999.0,81,0.00,,,0.00,open2300 v1.10,2013-05-07 07:59:00,
2013-05-07 03:05:00,55.8,50.0,29.98,WNW,292,0.0,-999.0,81,0.00,,,0.00,open2300 v1.10,2013-05-07 08:05:00,
2013-05-07 03:13:00,55.2,49.4,29.98,WNW,292,0.0,-999.0,81,0.00,,,0.00,open2300 v1.10,2013-05-07 08:13:00,
2013-05-07 03:18:00,55.2,49.4,29.98,WNW,292,0.0,-999.0,81,0.00,,,0.00,open2300 v1.10,2013-05-07 08:18:00,
2013-05-07 03:23:00,55.2,49.4,29.98,WNW,292,0.0,-999.0,81,0.00,,,0.00,open2300 v1.10,2013-05-07 08:23:00,
2013-05-07 03:28:00,55.2,49.8,29.98,WNW,292,0.0,-999.0,82,0.00,,,0.00,open2300 v1.10,2013-05-07 08:28:00,
2013-05-07 03:34:00,55.0,49.6,29.99,WNW,292,0.0,-999.0,82,0.00,,,0.00,open2300 v1.10,2013-05-07 08:34:00,
2013-05-07 03:39:00,55.0,49.6,29.98,WNW,292,0.0,-999.0,82,0.00,,,0.00,open2300 v1.10,2013-05-07 08:39:00,
2013-05-07 03:49:00,55.0,49.6,29.98,WNW,292,0.0,-999.0,82,0.00,,,0.00,open2300 v1.10,2013-05-07 08:49:00,
2013-05-07 03:59:00,55.0,49.6,29.99,WNW,292,0.0,-999.0,82,0.00,,,0.00,open2300 v1.10,2013-05-07 08:59:00,
2013-05-07 04:08:00,54.9,49.4,29.99,WNW,292,0.0,-999.0,82,0.00,,,0.00,open2300 v1.10,2013-05-07 09:08:00,
2013-05-07 04:13:00,54.7,49.3,29.99,WNW,292,0.0,-999.0,82,0.00,,,0.00,open2300 v1.10,2013-05-07 09:13:00,
2013-05-07 04:18:00,54.7,49.4,29.99,WNW,292,0.0,-999.0,82,0.00,,,0.00,open2300 v1.10,2013-05-07 09:18:00,
2013-05-07 04:23:00,54.7,49.3,29.99,WNW,292,0.0,-999.0,82,0.00,,,0.00,open2300 v1.10,2013-05-07 09:23:00,
2013-05-07 04:28:00,54.7,49.3,29.99,WNW,292,0.0,-999.0,82,0.00,,,0.00,open2300 v1.10,2013-05-07 09:28:00,
2013-05-07 04:33:00,54.5,49.1,29.99,WNW,292,0.0,-999.0,82,0.00,,,0.00,open2300 v1.10,2013-05-07 09:33:00,
2013-05-07 04:39:00,54.5,49.1,29.99,WNW,292,0.0,-999.0,82,0.00,,,0.00,open2300 v1.10,2013-05-07 09:39:00,
2013-05-07 04:44:00,54.5,49.1,29.99,WNW,292,0.0,-999.0,82,0.00,,,0.00,open2300 v1.10,2013-05-07 09:44:00,
2013-05-07 04:54:00,54.3,49.2,30.00,WNW,292,0.0,-999.0,83,0.00,,,0.00,open2300 v1.10,2013-05-07 09:54:00,
2013-05-07 04:59:00,54.5,49.4,30.00,WNW,292,0.0,-999.0,83,0.00,,,0.00,open2300 v1.10,2013-05-07 09:59:00,
2013-05-07 05:04:00,54.5,49.4,30.00,WNW,292,0.0,-999.0,83,0.00,,,0.00,open2300 v1.10,2013-05-07 10:04:00,
2013-05-07 05:13:00,54.7,49.6,29.99,WNW,292,0.0,-999.0,83,0.00,,,0.00,open2300 v1.10,2013-05-07 10:13:00,
2013-05-07 05:18:00,54.5,49.1,30.00,WNW,292,0.0,-999.0,82,0.00,,,0.00,open2300 v1.10,2013-05-07 10:18:00,
2013-05-07 05:23:00,54.5,49.1,30.00,WNW,292,0.0,-999.0,82,0.00,,,0.00,open2300 v1.10,2013-05-07 10:23:00,
2013-05-07 05:28:00,54.5,49.1,30.00,NW,315,0.0,-999.0,82,0.00,,,0.00,open2300 v1.10,2013-05-07 10:28:00,
2013-05-07 05:34:00,54.3,48.9,30.00,NW,315,0.0,-999.0,82,0.00,,,0.00,open2300 v1.10,2013-05-07 10:34:00,
2013-05-07 05:39:00,54.3,48.9,30.01,NW,315,0.0,-999.0,82,0.00,,,0.00,open2300 v1.10,2013-05-07 10:39:00,
2013-05-07 05:49:00,54.1,48.8,30.00,NW,315,0.0,-999.0,82,0.00,,,0.00,open2300 v1.10,2013-05-07 10:49:00,
2013-05-07 05:54:00,54.0,48.6,30.01,NW,315,0.0,-999.0,82,0.00,,,0.00,open2300 v1.10,2013-05-07 10:54:00,
2013-05-07 05:59:00,54.0,48.6,30.01,NW,315,0.0,-999.0,82,0.00,,,0.00,open2300 v1.10,2013-05-07 10:59:00,
2013-05-07 06:08:00,53.8,48.7,30.02,NW,315,0.0,-999.0,83,0.00,,,0.00,open2300 v1.10,2013-05-07 11:08:00,
2013-05-07 06:13:00,53.8,48.7,30.02,NW,315,0.0,-999.0,83,0.00,,,0.00,open2300 v1.10,2013-05-07 11:13:00,
2013-05-07 06:18:00,53.8,48.7,30.02,NW,315,0.0,-999.0,83,0.00,,,0.00,open2300 v1.10,2013-05-07 11:18:00,
2013-05-07 06:23:00,53.8,48.7,30.02,NW,315,0.0,-999.0,83,0.00,,,0.00,open2300 v1.10,2013-05-07 11:23:00,
2013-05-07 06:28:00,54.0,48.9,30.02,NW,315,0.0,-999.0,83,0.00,,,0.00,open2300 v1.10,2013-05-07 11:28:00,
2013-05-07 06:33:00,54.1,49.1,30.03,NW,315,0.0,-999.0,83,0.00,,,0.00,open2300 v1.10,2013-05-07 11:33:00,
2013-05-07 06:39:00,54.1,49.1,30.03,NW,315,0.0,-999.0,83,0.00,,,0.00,open2300 v1.10,2013-05-07 11:39:00,
2013-05-07 06:44:00,54.3,49.5,30.03,NW,315,0.0,-999.0,84,0.00,,,0.00,open2300 v1.10,2013-05-07 11:44:00,
2013-05-07 06:49:00,54.7,49.9,30.03,NW,315,0.0,-999.0,84,0.00,,,0.00,open2300 v1.10,2013-05-07 11:49:00,
2013-05-07 06:54:00,55.0,50.2,30.03,NW,315,0.0,-999.0,84,0.00,,,0.00,open2300 v1.10,2013-05-07 11:54:00,
2013-05-07 06:59:00,55.4,50.9,30.03,WNW,292,0.0,-999.0,85,0.00,,,0.00,open2300 v1.10,2013-05-07 11:59:00,
2013-05-07 07:08:00,57.0,51.9,30.04,WNW,292,0.0,-999.0,83,0.00,,,0.00,open2300 v1.10,2013-05-07 12:08:00,
2013-05-07 07:18:00,58.3,52.8,30.04,WNW,292,0.0,-999.0,82,0.00,,,0.00,open2300 v1.10,2013-05-07 12:18:00,
2013-05-07 07:23:00,58.8,53.0,30.04,WNW,292,0.0,-999.0,81,0.00,,,0.00,open2300 v1.10,2013-05-07 12:23:00,
2013-05-07 07:28:00,59.5,53.4,30.04,WNW,292,0.0,-999.0,80,0.00,,,0.00,open2300 v1.10,2013-05-07 12:28:00,
2013-05-07 07:34:00,60.1,54.0,30.04,WNW,292,0.0,-999.0,80,0.00,,,0.00,open2300 v1.10,2013-05-07 12:34:00,
2013-05-07 07:39:00,61.0,54.5,30.04,WNW,292,0.0,-999.0,79,0.00,,,0.00,open2300 v1.10,2013-05-07 12:39:00,
2013-05-07 07:44:00,61.5,54.6,30.04,WNW,292,0.0,-999.0,78,0.00,,,0.00,open2300 v1.10,2013-05-07 12:44:00,
2013-05-07 07:49:00,62.1,54.7,30.04,WNW,292,0.0,-999.0,77,0.00,,,0.00,open2300 v1.10,2013-05-07 12:49:00,
2013-05-07 07:54:00,63.0,55.2,30.04,WNW,292,0.0,-999.0,76,0.00,,,0.00,open2300 v1.10,2013-05-07 12:54:00,
2013-05-07 07:59:00,63.3,55.6,30.04,WNW,292,0.0,-999.0,76,0.00,,,0.00,open2300 v1.10,2013-05-07 12:59:00,
2013-05-07 08:08:00,64.2,55.8,30.04,WNW,292,1.1,-999.0,74,0.00,,,0.00,open2300 v1.10,2013-05-07 13:08:00,
2013-05-07 08:13:00,64.8,55.9,30.04,WNW,292,1.8,-999.0,73,0.00,,,0.00,open2300 v1.10,2013-05-07 13:13:00,
2013-05-07 08:18:00,65.1,56.2,30.04,WNW,292,6.3,-999.0,73,0.00,,,0.00,open2300 v1.10,2013-05-07 13:18:00,
2013-05-07 08:23:00,65.5,56.2,30.05,NW,315,1.1,-999.0,72,0.00,,,0.00,open2300 v1.10,2013-05-07 13:23:00,
2013-05-07 08:28:00,65.5,55.8,30.05,NW,315,0.0,-999.0,71,0.00,,,0.00,open2300 v1.10,2013-05-07 13:28:00,
2013-05-07 08:33:00,65.8,56.2,30.05,WNW,292,0.0,-999.0,71,0.00,,,0.00,open2300 v1.10,2013-05-07 13:33:00,
2013-05-07 08:39:00,66.0,56.3,30.05,WNW,292,0.0,-999.0,71,0.00,,,0.00,open2300 v1.10,2013-05-07 13:39:00,
2013-05-07 08:49:00,66.4,56.3,30.06,NNE,22,0.0,-999.0,70,0.00,,,0.00,open2300 v1.10,2013-05-07 13:49:00,
2013-05-07 08:54:00,66.7,56.7,30.05,WNW,292,8.7,-999.0,70,0.00,,,0.00,open2300 v1.10,2013-05-07 13:54:00,
2013-05-07 08:59:00,66.9,56.4,30.05,WNW,292,6.9,-999.0,69,0.00,,,0.00,open2300 v1.10,2013-05-07 13:59:00,
2013-05-07 09:08:00,67.3,56.8,30.06,NW,315,6.7,-999.0,69,0.00,,,0.00,open2300 v1.10,2013-05-07 14:08:00,
2013-05-07 09:13:00,67.6,56.7,30.05,WNW,292,7.6,-999.0,68,0.00,,,0.00,open2300 v1.10,2013-05-07 14:13:00,
2013-05-07 09:18:00,67.8,56.4,30.06,WNW,292,2.7,-999.0,67,0.00,,,0.00,open2300 v1.10,2013-05-07 14:18:00,
2013-05-07 09:23:00,68.2,56.8,30.06,WNW,292,6.0,-999.0,67,0.00,,,0.00,open2300 v1.10,2013-05-07 14:23:00,
2013-05-07 09:28:00,68.4,56.5,30.06,NW,315,0.0,-999.0,66,0.00,,,0.00,open2300 v1.10,2013-05-07 14:28:00,
2013-05-07 09:34:00,68.5,56.7,30.07,WNW,292,5.6,-999.0,66,0.00,,,0.00,open2300 v1.10,2013-05-07 14:34:00,
2013-05-07 09:39:00,68.7,56.4,30.06,NNE,22,0.0,-999.0,65,0.00,,,0.00,open2300 v1.10,2013-05-07 14:39:00,
2013-05-07 09:44:00,69.1,56.8,30.06,WNW,292,6.5,-999.0,65,0.00,,,0.00,open2300 v1.10,2013-05-07 14:44:00,
2013-05-07 09:49:00,69.1,56.3,30.07,NNE,22,2.9,-999.0,64,0.00,,,0.00,open2300 v1.10,2013-05-07 14:49:00,
2013-05-07 09:54:00,69.6,56.9,30.07,NNW,337,8.1,-999.0,64,0.00,,,0.00,open2300 v1.10,2013-05-07 14:54:00,
2013-05-07 10:03:00,69.6,56.5,30.06,NNW,337,0.0,-999.0,63,0.00,,,0.00,open2300 v1.10,2013-05-07 15:03:00,
2013-05-07 10:08:00,69.8,56.2,30.06,NNW,337,6.9,-999.0,62,0.00,,,0.00,open2300 v1.10,2013-05-07 15:08:00,
2013-05-07 10:13:00,70.0,56.8,30.06,NW,315,0.0,-999.0,63,0.00,,,0.00,open2300 v1.10,2013-05-07 15:13:00,
2013-05-07 10:18:00,70.3,56.7,30.06,SSE,157,0.0,-999.0,62,0.00,,,0.00,open2300 v1.10,2013-05-07 15:18:00,
2013-05-07 10:23:00,70.5,56.9,30.06,NNW,337,6.9,-999.0,62,0.00,,,0.00,open2300 v1.10,2013-05-07 15:23:00,
2013-05-07 10:28:00,70.9,56.8,30.06,NW,315,3.8,-999.0,61,0.00,,,0.00,open2300 v1.10,2013-05-07 15:28:00,
2013-05-07 10:34:00,71.2,57.1,30.07,NW,315,0.9,-999.0,61,0.00,,,0.00,open2300 v1.10,2013-05-07 15:34:00,
2013-05-07 10:39:00,71.2,57.1,30.06,SE,135,3.6,-999.0,61,0.00,,,0.00,open2300 v1.10,2013-05-07 15:39:00,
2013-05-07 10:44:00,71.2,57.1,30.06,North,0,8.1,-999.0,61,0.00,,,0.00,open2300 v1.10,2013-05-07 15:44:00,
2013-05-07 10:49:00,71.4,56.9,30.06,ENE,67,0.0,-999.0,60,0.00,,,0.00,open2300 v1.10,2013-05-07 15:49:00,
2013-05-07 10:54:00,71.8,57.2,30.06,North,0,0.0,-999.0,60,0.00,,,0.00,open2300 v1.10,2013-05-07 15:54:00,
2013-05-07 10:59:00,71.8,57.2,30.06,East,90,0.0,-999.0,60,0.00,,,0.00,open2300 v1.10,2013-05-07 15:59:00,
2013-05-07 11:08:00,72.5,56.8,30.06,SE,135,0.0,-999.0,58,0.00,,,0.00,open2300 v1.10,2013-05-07 16:08:00,
2013-05-07 11:13:00,73.2,57.0,30.07,NW,315,0.0,-999.0,57,0.00,,,0.00,open2300 v1.10,2013-05-07 16:13:00,
2013-05-07 11:23:00,74.3,57.5,30.06,West,270,0.0,-999.0,56,0.00,,,0.00,open2300 v1.10,2013-05-07 16:23:00,
2013-05-07 11:28:00,74.8,57.6,30.06,NE,45,0.0,-999.0,55,0.00,,,0.00,open2300 v1.10,2013-05-07 16:28:00,
2013-05-07 11:34:00,74.8,57.6,30.06,NNW,337,0.0,-999.0,55,0.00,,,0.00,open2300 v1.10,2013-05-07 16:34:00,
2013-05-07 11:39:00,75.0,57.2,30.06,North,0,0.0,-999.0,54,0.00,,,0.00,open2300 v1.10,2013-05-07 16:39:00,
2013-05-07 11:44:00,74.8,57.1,30.06,NNW,337,0.0,-999.0,54,0.00,,,0.00,open2300 v1.10,2013-05-07 16:44:00,
2013-05-07 11:49:00,74.8,57.1,30.06,North,0,4.0,-999.0,54,0.00,,,0.00,open2300 v1.10,2013-05-07 16:49:00,
2013-05-07 11:54:00,75.0,57.2,30.06,NNE,22,7.6,-999.0,54,0.00,,,0.00,open2300 v1.10,2013-05-07 16:54:00,
2013-05-07 11:59:00,75.2,56.9,30.05,ENE,67,0.0,-999.0,53,0.00,,,0.00,open2300 v1.10,2013-05-07 16:59:00,
2013-05-07 12:08:00,75.6,57.2,30.05,North,0,6.9,-999.0,53,0.00,,,0.00,open2300 v1.10,2013-05-07 17:08:00,
2013-05-07 12:13:00,75.7,57.9,30.05,NW,315,8.5,-999.0,54,0.00,,,0.00,open2300 v1.10,2013-05-07 17:13:00,
2013-05-07 12:18:00,75.7,57.4,30.05,NNW,337,4.9,-999.0,53,0.00,,,0.00,open2300 v1.10,2013-05-07 17:18:00,
2013-05-07 12:23:00,75.7,56.9,30.05,NW,315,0.0,-999.0,52,0.00,,,0.00,open2300 v1.10,2013-05-07 17:23:00,
2013-05-07 12:28:00,75.4,56.6,30.05,WNW,292,0.0,-999.0,52,0.00,,,0.00,open2300 v1.10,2013-05-07 17:28:00,
2013-05-07 12:34:00,75.4,56.6,30.05,NNW,337,7.6,-999.0,52,0.00,,,0.00,open2300 v1.10,2013-05-07 17:34:00,
2013-05-07 12:39:00,75.4,56.1,30.04,ENE,67,7.6,-999.0,51,0.00,,,0.00,open2300 v1.10,2013-05-07 17:39:00,
2013-05-07 12:44:00,75.2,55.9,30.04,NNE,22,0.0,-999.0,51,0.00,,,0.00,open2300 v1.10,2013-05-07 17:44:00,
2013-05-07 12:49:00,75.4,56.1,30.04,ENE,67,0.7,-999.0,51,0.00,,,0.00,open2300 v1.10,2013-05-07 17:49:00,
2013-05-07 12:54:00,75.7,56.9,30.04,NNW,337,0.0,-999.0,52,0.00,,,0.00,open2300 v1.10,2013-05-07 17:54:00,
2013-05-07 12:59:00,76.1,57.2,30.04,ENE,67,6.0,-999.0,52,0.00,,,0.00,open2300 v1.10,2013-05-07 17:59:00,
2013-05-07 13:08:00,76.6,57.2,30.04,North,0,3.1,-999.0,51,0.00,,,0.00,open2300 v1.10,2013-05-07 18:08:00,
2013-05-07 13:13:00,76.8,57.4,30.04,WNW,292,0.0,-999.0,51,0.00,,,0.00,open2300 v1.10,2013-05-07 18:13:00,
2013-05-07 13:18:00,76.8,57.4,30.04,NNW,337,0.0,-999.0,51,0.00,,,0.00,open2300 v1.10,2013-05-07 18:18:00,
2013-05-07 13:23:00,77.0,57.5,30.04,NE,45,4.7,-999.0,51,0.00,,,0.00,open2300 v1.10,2013-05-07 18:23:00,
2013-05-07 13:28:00,77.0,57.0,30.04,WNW,292,8.9,-999.0,50,0.00,,,0.00,open2300 v1.10,2013-05-07 18:28:00,
2013-05-07 13:34:00,77.2,57.7,30.04,NNW,337,6.9,-999.0,51,0.00,,,0.00,open2300 v1.10,2013-05-07 18:34:00,
2013-05-07 13:39:00,77.2,57.2,30.04,East,90,0.0,-999.0,50,0.00,,,0.00,open2300 v1.10,2013-05-07 18:39:00,
2013-05-07 13:49:00,77.4,57.3,30.04,NNW,337,4.0,-999.0,50,0.00,,,0.00,open2300 v1.10,2013-05-07 18:49:00,
2013-05-07 13:54:00,77.5,57.5,30.04,North,0,3.4,-999.0,50,0.00,,,0.00,open2300 v1.10,2013-05-07 18:54:00,
2013-05-07 13:59:00,77.5,57.5,30.03,NNW,337,8.3,-999.0,50,0.00,,,0.00,open2300 v1.10,2013-05-07 18:59:00,
2013-05-07 14:08:00,77.5,57.5,30.03,ENE,67,0.0,-999.0,50,0.00,,,0.00,open2300 v1.10,2013-05-07 19:08:00,
2013-05-07 14:13:00,77.9,57.8,30.02,NE,45,0.0,-999.0,50,0.00,,,0.00,open2300 v1.10,2013-05-07 19:13:00,
2013-05-07 14:18:00,78.1,58.0,30.02,ENE,67,6.0,-999.0,50,0.00,,,0.00,open2300 v1.10,2013-05-07 19:18:00,
2013-05-07 14:28:00,78.6,57.2,30.02,ENE,67,0.0,-999.0,48,0.00,,,0.00,open2300 v1.10,2013-05-07 19:28:00,
2013-05-07 14:33:00,79.0,57.6,30.02,NW,315,5.6,-999.0,48,0.00,,,0.00,open2300 v1.10,2013-05-07 19:33:00,
2013-05-07 14:39:00,78.6,57.2,30.02,NNW,337,0.0,-999.0,48,0.00,,,0.00,open2300 v1.10,2013-05-07 19:39:00,
2013-05-07 14:44:00,78.6,57.2,30.01,NNW,337,4.5,-999.0,48,0.00,,,0.00,open2300 v1.10,2013-05-07 19:44:00,
2013-05-07 14:49:00,78.6,57.9,30.01,WNW,292,5.1,-999.0,49,0.00,,,0.00,open2300 v1.10,2013-05-07 19:49:00,
2013-05-07 14:54:00,78.6,57.2,30.01,North,0,6.9,-999.0,48,0.00,,,0.00,open2300 v1.10,2013-05-07 19:54:00,
2013-05-07 14:59:00,78.6,57.2,30.01,NW,315,6.3,-999.0,48,0.00,,,0.00,open2300 v1.10,2013-05-07 19:59:00,
2013-05-07 15:08:00,78.1,56.8,30.01,NNE,22,6.0,-999.0,48,0.00,,,0.00,open2300 v1.10,2013-05-07 20:08:00,
2013-05-07 15:13:00,77.7,57.1,30.01,North,0,0.0,-999.0,49,0.00,,,0.00,open2300 v1.10,2013-05-07 20:13:00,
2013-05-07 15:18:00,77.7,57.7,30.01,WNW,292,5.4,-999.0,50,0.00,,,0.00,open2300 v1.10,2013-05-07 20:18:00,
2013-05-07 15:23:00,77.5,57.5,30.01,NW,315,7.8,-999.0,50,0.00,,,0.00,open2300 v1.10,2013-05-07 20:23:00,
2013-05-07 15:28:00,77.4,57.3,30.01,NW,315,7.6,-999.0,50,0.00,,,0.00,open2300 v1.10,2013-05-07 20:28:00,
2013-05-07 15:34:00,77.2,57.7,30.01,NW,315,6.5,-999.0,51,0.00,,,0.00,open2300 v1.10,2013-05-07 20:34:00,
2013-05-07 15:39:00,77.7,57.7,30.00,NW,315,7.2,-999.0,50,0.00,,,0.00,open2300 v1.10,2013-05-07 20:39:00,
2013-05-07 15:44:00,77.9,57.8,30.01,NNW,337,2.9,-999.0,50,0.00,,,0.00,open2300 v1.10,2013-05-07 20:44:00,
2013-05-07 15:49:00,78.1,57.4,30.01,North,0,3.6,-999.0,49,0.00,,,0.00,open2300 v1.10,2013-05-07 20:49:00,
2013-05-07 15:54:00,78.4,57.7,30.01,North,0,0.4,-999.0,49,0.00,,,0.00,open2300 v1.10,2013-05-07 20:54:00,
2013-05-07 15:59:00,78.6,57.9,30.01,NE,45,5.1,-999.0,49,0.00,,,0.00,open2300 v1.10,2013-05-07 20:59:00,
2013-05-07 16:08:00,78.6,57.2,30.01,East,90,0.0,-999.0,48,0.00,,,0.00,open2300 v1.10,2013-05-07 21:08:00,
2013-05-07 16:13:00,78.6,57.9,30.00,NNW,337,6.9,-999.0,49,0.00,,,0.00,open2300 v1.10,2013-05-07 21:13:00,
2013-05-07 16:18:00,79.0,57.6,30.01,NNE,22,0.0,-999.0,48,0.00,,,0.00,open2300 v1.10,2013-05-07 21:18:00,
2013-05-07 16:23:00,79.3,57.3,30.01,NE,45,4.2,-999.0,47,0.00,,,0.00,open2300 v1.10,2013-05-07 21:23:00,
2013-05-07 16:28:00,79.5,57.5,30.01,NNW,337,9.4,-999.0,47,0.00,,,0.00,open2300 v1.10,2013-05-07 21:28:00,
2013-05-07 16:34:00,79.5,58.1,30.01,NW,315,3.8,-999.0,48,0.00,,,0.00,open2300 v1.10,2013-05-07 21:34:00,
2013-05-07 16:39:00,79.7,57.6,30.01,WNW,292,0.0,-999.0,47,0.00,,,0.00,open2300 v1.10,2013-05-07 21:39:00,
2013-05-07 16:49:00,79.7,57.6,30.00,NNE,22,4.7,-999.0,47,0.00,,,0.00,open2300 v1.10,2013-05-07 21:49:00,
2013-05-07 16:54:00,79.2,57.1,30.00,NNW,337,6.3,-999.0,47,0.00,,,0.00,open2300 v1.10,2013-05-07 21:54:00,
2013-05-07 16:59:00,79.0,57.0,30.00,NNE,22,0.0,-999.0,47,0.00,,,0.00,open2300 v1.10,2013-05-07 21:59:00,
2013-05-07 17:08:00,78.4,56.5,30.00,ENE,67,0.0,-999.0,47,0.00,,,0.00,open2300 v1.10,2013-05-07 22:08:00,
2013-05-07 17:13:00,78.1,56.8,30.01,NNW,337,3.8,-999.0,48,0.00,,,0.00,open2300 v1.10,2013-05-07 22:13:00,
2013-05-07 17:18:00,77.9,56.6,30.00,North,0,3.8,-999.0,48,0.00,,,0.00,open2300 v1.10,2013-05-07 22:18:00,
2013-05-07 17:23:00,78.1,57.4,30.00,NNE,22,0.7,-999.0,49,0.00,,,0.00,open2300 v1.10,2013-05-07 22:23:00,
2013-05-07 17:28:00,78.1,56.8,30.00,NE,45,0.0,-999.0,48,0.00,,,0.00,open2300 v1.10,2013-05-07 22:28:00,
2013-05-07 17:34:00,78.1,57.4,30.00,WNW,292,0.0,-999.0,49,0.00,,,0.00,open2300 v1.10,2013-05-07 22:34:00,
2013-05-07 17:39:00,78.1,57.4,30.00,ENE,67,11.2,-999.0,49,0.00,,,0.00,open2300 v1.10,2013-05-07 22:39:00,
2013-05-07 17:49:00,77.7,57.1,30.00,SE,135,0.0,-999.0,49,0.00,,,0.00,open2300 v1.10,2013-05-07 22:49:00,
2013-05-07 17:54:00,77.5,57.5,30.01,East,90,8.7,-999.0,50,0.00,,,0.00,open2300 v1.10,2013-05-07 22:54:00,
2013-05-07 17:59:00,77.4,57.3,30.01,East,90,0.0,-999.0,50,0.00,,,0.00,open2300 v1.10,2013-05-07 22:59:00,
2013-05-07 18:08:00,77.2,57.2,30.00,ESE,112,0.0,-999.0,50,0.00,,,0.00,open2300 v1.10,2013-05-07 23:08:00,
2013-05-07 18:13:00,76.8,57.4,30.01,SSE,157,4.0,-999.0,51,0.00,,,0.00,open2300 v1.10,2013-05-07 23:13:00,
2013-05-07 18:18:00,76.8,57.4,30.00,ESE,112,2.7,-999.0,51,0.00,,,0.00,open2300 v1.10,2013-05-07 23:18:00,
2013-05-07 18:23:00,76.6,57.2,30.01,ESE,112,6.5,-999.0,51,0.00,,,0.00,open2300 v1.10,2013-05-07 23:23:00,
2013-05-07 18:28:00,76.1,56.7,30.01,ESE,112,2.7,-999.0,51,0.00,,,0.00,open2300 v1.10,2013-05-07 23:28:00,
2013-05-07 18:34:00,75.7,56.4,30.00,SE,135,4.0,-999.0,51,0.00,,,0.00,open2300 v1.10,2013-05-07 23:34:00,
2013-05-07 18:39:00,75.4,56.6,30.01,NNW,337,14.1,-999.0,52,0.00,,,0.00,open2300 v1.10,2013-05-07 23:39:00,
2013-05-07 18:44:00,75.0,56.2,30.01,ESE,112,0.0,-999.0,52,0.00,,,0.00,open2300 v1.10,2013-05-07 23:44:00,
2013-05-07 18:49:00,74.8,56.0,30.01,SE,135,0.0,-999.0,52,0.00,,,0.00,open2300 v1.10,2013-05-07 23:49:00,
2013-05-07 18:54:00,74.5,55.7,30.01,ESE,112,4.9,-999.0,52,0.00,,,0.00,open2300 v1.10,2013-05-07 23:54:00,
2013-05-07 18:59:00,74.1,55.8,30.01,NNW,337,0.0,-999.0,53,0.00,,,0.00,open2300 v1.10,2013-05-07 23:59:00,
2013-05-07 19:08:00,73.9,55.7,30.01,ENE,67,3.6,-999.0,53,0.00,,,0.00,open2300 v1.10,2013-05-08 00:08:00,
2013-05-07 19:13:00,73.8,56.0,30.01,ESE,112,0.0,-999.0,54,0.00,,,0.00,open2300 v1.10,2013-05-08 00:13:00,
2013-05-07 19:23:00,73.2,56.0,30.01,ESE,112,2.9,-999.0,55,0.00,,,0.00,open2300 v1.10,2013-05-08 00:23:00,
2013-05-07 19:28:00,72.9,56.1,30.02,ESE,112,0.9,-999.0,56,0.00,,,0.00,open2300 v1.10,2013-05-08 00:28:00,
2013-05-07 19:33:00,72.5,55.8,30.02,ESE,112,0.0,-999.0,56,0.00,,,0.00,open2300 v1.10,2013-05-08 00:33:00,
2013-05-07 19:39:00,72.3,56.2,30.02,ESE,112,6.3,-999.0,57,0.00,,,0.00,open2300 v1.10,2013-05-08 00:39:00,
2013-05-07 19:49:00,71.8,56.2,30.02,ESE,112,0.0,-999.0,58,0.00,,,0.00,open2300 v1.10,2013-05-08 00:49:00,
2013-05-07 19:54:00,71.4,55.8,30.02,ESE,112,0.0,-999.0,58,0.00,,,0.00,open2300 v1.10,2013-05-08 00:54:00,
2013-05-07 19:59:00,71.2,56.2,30.02,East,90,0.0,-999.0,59,0.00,,,0.00,open2300 v1.10,2013-05-08 00:59:00,
2013-05-07 20:08:00,70.9,56.4,30.02,ESE,112,0.0,-999.0,60,0.00,,,0.00,open2300 v1.10,2013-05-08 01:08:00,
2013-05-07 20:13:00,70.5,56.0,30.02,ESE,112,0.0,-999.0,60,0.00,,,0.00,open2300 v1.10,2013-05-08 01:13:00,
2013-05-07 20:18:00,70.3,55.9,30.02,ESE,112,0.0,-999.0,60,0.00,,,0.00,open2300 v1.10,2013-05-08 01:18:00,
2013-05-07 20:23:00,70.2,56.1,30.03,ESE,112,0.0,-999.0,61,0.00,,,0.00,open2300 v1.10,2013-05-08 01:23:00,
2013-05-07 20:28:00,70.0,56.0,30.02,ESE,112,0.0,-999.0,61,0.00,,,0.00,open2300 v1.10,2013-05-08 01:28:00,
2013-05-07 20:33:00,69.6,56.0,30.03,ESE,112,0.0,-999.0,62,0.00,,,0.00,open2300 v1.10,2013-05-08 01:33:00,
2013-05-07 20:39:00,69.4,55.9,30.03,ESE,112,0.0,-999.0,62,0.00,,,0.00,open2300 v1.10,2013-05-08 01:39:00,
2013-05-07 20:49:00,68.9,55.8,30.03,ESE,112,0.0,-999.0,63,0.00,,,0.00,open2300 v1.10,2013-05-08 01:49:00,
2013-05-07 20:54:00,68.7,55.6,30.03,ESE,112,0.0,-999.0,63,0.00,,,0.00,open2300 v1.10,2013-05-08 01:54:00,
2013-05-07 20:59:00,68.5,55.4,30.03,ESE,112,0.0,-999.0,63,0.00,,,0.00,open2300 v1.10,2013-05-08 01:59:00,
2013-05-07 21:08:00,68.2,55.5,30.04,ESE,112,0.0,-999.0,64,0.00,,,0.00,open2300 v1.10,2013-05-08 02:08:00,
2013-05-07 21:13:00,67.8,55.6,30.03,ESE,112,0.0,-999.0,65,0.00,,,0.00,open2300 v1.10,2013-05-08 02:13:00,
2013-05-07 21:18:00,67.6,55.4,30.03,ESE,112,0.0,-999.0,65,0.00,,,0.00,open2300 v1.10,2013-05-08 02:18:00,
2013-05-07 21:23:00,67.5,55.7,30.03,ESE,112,0.0,-999.0,66,0.00,,,0.00,open2300 v1.10,2013-05-08 02:23:00,
2013-05-07 21:28:00,67.3,55.5,30.04,ESE,112,0.0,-999.0,66,0.00,,,0.00,open2300 v1.10,2013-05-08 02:28:00,
2013-05-07 21:34:00,67.3,55.5,30.04,ESE,112,0.0,-999.0,66,0.00,,,0.00,open2300 v1.10,2013-05-08 02:34:00,
2013-05-07 21:44:00,66.7,55.8,30.04,ESE,112,0.0,-999.0,68,0.00,,,0.00,open2300 v1.10,2013-05-08 02:44:00,
2013-05-07 21:49:00,66.7,55.8,30.04,ESE,112,0.0,-999.0,68,0.00,,,0.00,open2300 v1.10,2013-05-08 02:49:00,
2013-05-07 21:54:00,66.4,55.5,30.04,ESE,112,0.0,-999.0,68,0.00,,,0.00,open2300 v1.10,2013-05-08 02:54:00,
2013-05-07 21:59:00,66.2,55.3,30.05,ESE,112,0.0,-999.0,68,0.00,,,0.00,open2300 v1.10,2013-05-08 02:59:00,
2013-05-07 22:08:00,65.8,55.4,30.05,ESE,112,0.0,-999.0,69,0.00,,,0.00,open2300 v1.10,2013-05-08 03:08:00,
2013-05-07 22:13:00,65.7,55.2,30.05,ESE,112,0.0,-999.0,69,0.00,,,0.00,open2300 v1.10,2013-05-08 03:13:00,
2013-05-07 22:18:00,65.5,55.5,30.05,ESE,112,0.0,-999.0,70,0.00,,,0.00,open2300 v1.10,2013-05-08 03:18:00,
2013-05-07 22:23:00,65.1,55.2,30.05,ESE,112,0.0,-999.0,70,0.00,,,0.00,open2300 v1.10,2013-05-08 03:23:00,
2013-05-07 22:28:00,65.1,55.5,30.05,ESE,112,0.0,-999.0,71,0.00,,,0.00,open2300 v1.10,2013-05-08 03:28:00,
2013-05-07 22:34:00,64.9,55.3,30.05,ESE,112,0.0,-999.0,71,0.00,,,0.00,open2300 v1.10,2013-05-08 03:34:00,
2013-05-07 22:39:00,64.8,55.5,30.05,ESE,112,0.0,-999.0,72,0.00,,,0.00,open2300 v1.10,2013-05-08 03:39:00,
2013-05-07 22:49:00,64.6,55.4,30.05,ESE,112,0.0,-999.0,72,0.00,,,0.00,open2300 v1.10,2013-05-08 03:49:00,
2013-05-07 22:54:00,64.2,55.0,30.05,ESE,112,0.0,-999.0,72,0.00,,,0.00,open2300 v1.10,2013-05-08 03:54:00,
2013-05-07 22:59:00,64.2,55.4,30.05,ESE,112,0.0,-999.0,73,0.00,,,0.00,open2300 v1.10,2013-05-08 03:59:00,
2013-05-07 23:03:00,64.0,55.2,30.05,ESE,112,0.0,-999.0,73,0.00,,,0.00,open2300 v1.10,2013-05-08 04:03:00,
2013-05-07 23:08:00,64.0,55.2,30.06,ESE,112,0.0,-999.0,73,0.00,,,0.00,open2300 v1.10,2013-05-08 04:08:00,
2013-05-07 23:18:00,63.7,54.9,30.05,ESE,112,0.0,-999.0,73,0.00,,,0.00,open2300 v1.10,2013-05-08 04:18:00,
2013-05-07 23:23:00,63.5,55.0,30.06,ESE,112,0.0,-999.0,74,0.00,,,0.00,open2300 v1.10,2013-05-08 04:23:00,
2013-05-07 23:28:00,63.5,55.0,30.06,ESE,112,0.0,-999.0,74,0.00,,,0.00,open2300 v1.10,2013-05-08 04:28:00,
2013-05-07 23:33:00,63.3,54.9,30.06,ESE,112,0.0,-999.0,74,0.00,,,0.00,open2300 v1.10,2013-05-08 04:33:00,
2013-05-07 23:39:00,63.3,55.2,30.06,ESE,112,0.0,-999.0,75,0.00,,,0.00,open2300 v1.10,2013-05-08 04:39:00,
2013-05-07 23:49:00,63.1,55.0,30.06,ESE,112,0.0,-999.0,75,0.00,,,0.00,open2300 v1.10,2013-05-08 04:49:00,
2013-05-07 23:54:00,62.8,54.7,30.06,ESE,112,0.0,-999.0,75,0.00,,,0.00,open2300 v1.10,2013-05-08 04:54:00,
2013-05-07 23:59:00,62.8,55.0,30.06,ESE,112,0.0,-999.0,76,0.00,,,0.00,open2300 v1.10,2013-05-08 04:59:00,